Time;durP1;ratioP1;P1;durP2;ratioP2;P2;SDS_P1;SDS_P2;PMS_P1;PMS_P2;Temp;Humidity;BMP_temperature;BMP_pressure;BME280_temperature;BME280_humidity;BME280_pressure;Samples;Min_cycle;Max_cycle;Signal;HPM_P1;HPM_P2
2024/04/23 00:01:36;;;;;;;42.50;20.60;;;;;;;-2.51;72.01;100937.71;127980;1286;114822;-60
2024/04/23 00:05:31;;;;;;;61.50;26.20;;;;;;;-2.54;72.10;100934.35;122851;1292;114838;-61
2024/04/23 00:09:11;;;;;;;;;;;;;;;;;;;;;
2024/04/23 00:13:14;;;;;;;69.10;27.80;;;;;;;-2.58;72.03;100923.45;126055;1313;114987;-60
2024/04/23 00:17:04;;;;;;;50.30;26.60;;;;;;;-2.61;72.31;100924.79;125689;1297;128989;-61
2024/04/23 00:25:21;;;;;;;51.40;26.30;;;;;;;-2.64;72.58;100924.59;126275;1295;635958;-61
2024/04/23 00:28:55;;;;;;;51.80;25.10;;;;;;;-2.68;72.62;100933.08;128422;1276;128509;-61
2024/04/23 00:32:41;;;;;;;;;;;;;;;;;;;;;
2024/04/23 00:36:44;;;;;;;44.90;25.20;;;;;;;-2.73;72.83;100936.69;127908;1284;114918;-59
2024/04/23 00:40:47;;;;;;;54.10;25.30;;;;;;;-2.77;72.60;100944.15;123723;1289;114856;-62
2024/04/23 00:44:41;;;;;;;45.20;22.90;;;;;;;-2.80;72.74;100943.92;126755;1284;114961;-59
2024/04/23 00:48:23;;;;;;;59.40;25.70;;;;;;;-2.80;72.86;100942.35;127746;1301;114931;-60
2024/04/23 00:52:22;;;;;;;51.30;23.50;;;;;;;-2.81;72.60;100947.77;126913;1305;129779;-59
2024/04/23 00:56:24;;;;;;;55.10;28.30;;;;;;;-2.81;72.65;100948.98;126579;1289;115061;-60
2024/04/23 01:00:06;;;;;;;46.40;21.00;;;;;;;-2.86;72.56;100947.32;125910;1299;115070;-60
2024/04/23 01:04:05;;;;;;;;;;;;;;;;;;;;;
2024/04/23 01:12:05;;;;;;;59.70;28.80;;;;;;;-2.93;72.97;100936.38;126383;1305;635905;-59
2024/04/23 01:16:01;;;;;;;;;;;;;;;;;;;;;
2024/04/23 01:19:51;;;;;;;59.90;25.90;;;;;;;-2.99;73.06;100931.21;126838;1287;116362;-61
2024/04/23 01:23:51;;;;;;;;;;;;;;;;;;;;;
2024/04/23 01:27:55;;;;;;;53.50;25.60;;;;;;;-3.02;73.42;100921.20;122438;1295;115982;-61
2024/04/23 01:31:24;;;;;;;45.60;18.70;;;;;;;-3.03;73.45;100915.59;125242;1306;114934;-60
2024/04/23 01:35:15;;;;;;;53.20;23.60;;;;;;;-3.05;73.33;100910.49;125281;1318;114797;-60
2024/04/23 01:43:17;;;;;;;61.60;30.30;;;;;;;-3.05;73.75;100909.11;126419;1296;636200;-59
2024/04/23 01:46:58;;;;;;;51.40;25.30;;;;;;;-3.09;73.70;100915.00;128786;1276;127977;-60
2024/04/23 01:50:43;;;;;;;;;;;;;;;;;;;;;
2024/04/23 01:54:47;;;;;;;64.50;29.90;;;;;;;-3.14;73.77;100914.20;127609;1280;114922;-61
2024/04/23 01:58:42;;;;;;;74.00;30.10;;;;;;;-3.18;73.91;100913.60;123274;1284;114849;-61
2024/04/23 02:02:36;;;;;;;;;;;;;;;;;;;;;
2024/04/23 02:06:31;;;;;;;;;;;;;;;;;;;;;
2024/04/23 02:10:26;;;;;;;69.00;31.00;;;;;;;-3.25;74.67;100919.44;124417;1313;129859;-60
2024/04/23 02:14:00;;;;;;;67.30;29.40;;;;;;;-3.26;74.50;100919.60;124083;1329;115082;-61
2024/04/23 02:17:30;;;;;;;65.70;27.30;;;;;;;-3.25;74.46;100926.08;123920;1330;115084;-59
2024/04/23 02:25:34;;;;;;;55.80;30.50;;;;;;;-3.25;74.25;100929.39;126038;1297;635738;-61
2024/04/23 02:33:39;;;;;;;61.30;28.00;;;;;;;-3.33;74.35;100933.79;127010;1306;115041;-60
2024/04/23 02:37:20;;;;;;;;;;;;;;;;;;;;;
2024/04/23 02:41:00;;;;;;;;;;;;;;;;;;;;;
2024/04/23 02:44:52;;;;;;;60.20;26.80;;;;;;;-3.38;74.47;100924.62;125476;1319;116370;-60
2024/04/23 02:48:50;;;;;;;63.60;31.80;;;;;;;-3.40;74.13;100921.10;124808;1320;129912;-59
2024/04/23 02:52:45;;;;;;;;;;;;;;;;;;;;;
2024/04/23 02:56:50;;;;;;;;;;;;;;;;;;;;;
2024/04/23 03:00:53;;;;;;;;;;;;;;;;;;;;;
2024/04/23 03:04:42;;;;;;;63.70;30.10;;;;;;;-3.54;73.92;100914.05;127033;1300;114960;-60
2024/04/23 03:08:38;;;;;;;71.10;33.30;;;;;;;-3.55;74.49;100916.11;123346;1316;5744163;-61
2024/04/23 03:11:39;;;;;;;67.90;29.60;;;;;;;-3.57;74.23;100908.92;125534;1306;114890;-58
2024/04/23 03:14:43;;;;;;;81.40;36.20;;;;;;;-3.57;74.27;100905.63;125521;1317;115045;-60
2024/04/23 03:17:44;;;;;;;72.60;32.20;;;;;;;-3.58;74.32;100902.10;125518;1315;116318;-59
2024/04/23 03:20:59;;;;;;;84.90;37.80;;;;;;;-3.60;74.26;100900.30;125975;1318;114919;-60
2024/04/23 03:24:44;;;;;;;81.60;35.50;;;;;;;-3.62;74.37;100897.65;125477;1313;130261;-59
2024/04/23 03:28:32;;;;;;;80.90;33.80;;;;;;;-3.65;74.24;100894.30;124783;1306;114815;-60
2024/04/23 03:32:34;;;;;;;73.20;33.10;;;;;;;-3.64;74.58;100887.86;126305;1292;636105;-60
2024/04/23 03:35:59;;;;;;;81.80;34.50;;;;;;;-3.68;74.51;100885.17;128694;1272;129976;-60
2024/04/23 03:39:48;;;;;;;75.30;34.20;;;;;;;-3.69;74.31;100880.79;128624;1276;114746;-60
2024/04/23 03:43:49;;;;;;;72.40;31.10;;;;;;;-3.69;74.59;100877.30;127796;1301;114849;-60
2024/04/23 03:47:24;;;;;;;68.60;31.10;;;;;;;-3.69;74.49;100868.02;122516;1295;114951;-60
2024/04/23 03:50:57;;;;;;;66.20;31.90;;;;;;;-3.68;74.89;100865.79;126333;1295;114891;-60
2024/04/23 03:54:20;;;;;;;;;;;;;;;;;;;;;
2024/04/23 03:58:02;;;;;;;;;;;;;;;;;;;;;
2024/04/23 04:01:47;;;;;;;76.70;36.60;;;;;;;-3.60;75.30;100868.54;125932;1292;114904;-59
2024/04/23 04:09:52;;;;;;;76.30;35.40;;;;;;;-3.52;75.23;100873.23;126247;1295;114858;-60
2024/04/23 04:13:27;;;;;;;;;;;;;;;;;;;;;
2024/04/23 04:17:03;;;;;;;72.90;34.80;;;;;;;-3.40;75.14;100872.20;126504;1307;128854;-61
2024/04/23 04:20:56;;;;;;;74.40;34.80;;;;;;;-3.31;75.48;100873.05;126907;1289;114985;-60
2024/04/23 04:24:31;;;;;;;83.30;35.70;;;;;;;-3.22;75.49;100874.59;127072;1286;114903;-61
2024/04/23 04:28:11;;;;;;;77.50;37.10;;;;;;;-3.11;75.37;100874.41;127377;1286;114991;-60
2024/04/23 04:31:55;;;;;;;;;;;;;;;;;;;;;
2024/04/23 04:35:06;;;;;;;;;;;;;;;-2.88;75.35;100873.89;127049;1302;128231;-59
2024/04/23 04:38:55;;;;;;;65.10;32.30;;;;;;;-2.79;75.70;100872.96;127929;1294;114821;-59
2024/04/23 04:42:55;;;;;;;;;;;;;;;;;;;;;
2024/04/23 04:46:58;;;;;;;74.00;36.00;;;;;;;-2.47;75.97;100873.05;127592;1286;114946;-59
2024/04/23 04:50:27;;;;;;;76.60;37.60;;;;;;;-2.00;76.48;100873.80;126617;1310;114906;-60
2024/04/23 04:54:44;;;;;;;69.70;31.40;;;;;;;-1.18;76.66;100874.73;125801;1317;131795;-61
2024/04/23 04:58:28;;;;;;;74.60;35.80;;;;;;;-0.22;76.69;100868.29;124830;1324;114994;-61
2024/04/23 05:02:02;;;;;;;62.90;35.00;;;;;;;0.62;75.68;100862.49;124189;1327;115006;-60
2024/04/23 05:05:42;;;;;;;61.10;32.60;;;;;;;1.40;75.35;100854.48;124688;1327;115097;-59
2024/04/23 05:09:16;;;;;;;;;;;;;;;;;;;;;
2024/04/23 05:12:49;;;;;;;72.00;35.60;;;;;;;3.18;74.04;100849.98;124077;1313;130016;-61
2024/04/23 05:16:12;;;;;;;69.40;35.60;;;;;;;4.18;73.35;100843.47;124190;1331;115365;-61
2024/04/23 05:19:52;;;;;;;;;;;;;;;;;;;;;
2024/04/23 05:23:34;;;;;;;72.80;38.00;;;;;;;6.20;71.37;100830.56;124619;1330;115007;-62
2024/04/23 05:27:05;;;;;;;63.40;33.00;;;;;;;7.09;69.78;100831.40;124814;1320;115341;-61
2024/04/23 05:34:40;;;;;;;71.50;40.10;;;;;;;7.46;67.10;100832.17;125719;1299;114937;-61
2024/04/23 05:38:37;;;;;;;;;;;;;;;;;;;;;
2024/04/23 05:42:31;;;;;;;;;;;;;;;;;;;;;
2024/04/23 05:46:02;;;;;;;73.10;38.90;;;;;;;6.74;65.30;100836.91;126105;1306;114886;-59
2024/04/23 05:50:02;;;;;;;67.00;38.90;;;;;;;6.40;65.16;100839.69;126517;1310;127812;-60
2024/04/23 05:53:58;;;;;;;;;;;;;;;;;;;;;
2024/04/23 05:57:36;;;;;;;;;;;;;;;;;;;;;
2024/04/23 06:01:14;;;;;;;62.40;36.00;;;;;;;6.79;65.51;100838.05;126814;1306;115094;-60
2024/04/23 06:04:48;;;;;;;;;;;;;;;;;;;;;
2024/04/23 06:08:43;;;;;;;55.90;30.90;;;;;;;7.60;64.70;100827.35;127922;1297;128877;-61
2024/04/23 06:11:59;;;;;;;57.20;29.60;;;;;;;7.96;64.05;100820.09;127117;1305;114949;-61
2024/04/23 06:15:54;;;;;;;45.30;26.10;;;;;;;8.43;63.77;100820.23;126966;1288;114848;-61
2024/04/23 06:20:01;;;;;;;35.20;20.80;;;;;;;9.10;63.39;100816.59;126794;1305;114916;-61
2024/04/23 06:23:48;;;;;;;28.90;17.60;;;;;;;9.84;62.20;100817.64;126710;1305;114950;-61
2024/04/23 06:27:36;;;;;;;21.20;11.10;;;;;;;10.35;60.46;100818.86;126229;1296;128258;-62
2024/04/23 06:31:25;;;;;;;15.50;9.90;;;;;;;10.70;59.41;100822.69;125958;1312;115038;-62
2024/04/23 06:35:16;;;;;;;;;;;;;;;;;;;;;
2024/04/23 06:38:19;;;;;;;19.80;12.30;;;;;;;11.24;58.12;100819.29;124915;1308;114972;-61
2024/04/23 06:42:15;;;;;;;;;;;;;;;;;;;;;
2024/04/23 06:45:46;;;;;;;;;;;;;;;;;;;;;
2024/04/23 06:49:35;;;;;;;15.70;11.10;;;;;;;11.68;55.92;100811.42;124060;1329;115088;-61
2024/04/23 06:53:17;;;;;;;12.10;8.60;;;;;;;11.88;55.60;100810.52;124199;1327;115068;-62
2024/04/23 06:56:53;;;;;;;13.40;8.60;;;;;;;12.15;55.30;100803.56;124226;1332;115239;-62
2024/04/23 07:00:38;;;;;;;13.40;9.10;;;;;;;12.42;55.36;100802.08;124547;1323;114994;-61
2024/04/23 07:04:11;;;;;;;;;;;;;;;;;;;;;
2024/04/23 07:08:06;;;;;;;6.30;3.60;;;;;;;12.79;52.14;100796.45;125360;1304;115339;-61
2024/04/23 07:11:21;;;;;;;4.50;3.30;;;;;;;12.97;50.70;100795.38;124911;1323;115074;-60
2024/04/23 07:15:23;;;;;;;7.90;5.20;;;;;;;13.07;50.26;100792.36;125483;1316;114769;-62
2024/04/23 07:18:31;;;;;;;3.20;1.90;;;;;;;13.22;49.78;100792.83;125387;1316;114954;-61
2024/04/23 07:22:29;;;;;;;11.60;6.20;;;;;;;13.45;48.51;100789.48;125599;1312;129802;-62
2024/04/23 07:25:59;;;;;;;;;;;;;;;13.55;48.36;100786.98;126261;1303;114812;-63
2024/04/23 07:29:49;;;;;;;4.30;3.00;;;;;;;13.57;47.34;100783.86;126734;1306;114895;-61
2024/04/23 07:33:36;;;;;;;;;;;;;;;;;;;;;
2024/04/23 07:41:01;;;;;;;5.30;3.20;;;;;;;13.75;45.86;100769.16;125808;1289;130076;-62
2024/04/23 07:44:34;;;;;;;2.00;1.60;;;;;;;13.66;45.13;100764.64;125971;1295;114921;-62
2024/04/23 07:48:13;;;;;;;2.80;2.10;;;;;;;13.59;43.97;100760.92;126015;1289;114928;-62
2024/04/23 07:52:00;;;;;;;;;;;;;;;;;;;;;
2024/04/23 07:55:54;;;;;;;;;;;;;;;;;;;;;
2024/04/23 07:59:39;;;;;;;;;;;;;;;;;;;;;
2024/04/23 08:03:07;;;;;;;3.70;2.50;;;;;;;13.97;42.14;100751.84;127021;1286;114901;-62
2024/04/23 08:07:06;;;;;;;4.40;3.00;;;;;;;14.14;42.25;100753.89;127272;1288;114869;-63
2024/04/23 08:11:06;;;;;;;5.20;3.20;;;;;;;14.26;42.23;100750.36;126567;1307;115248;-61
2024/04/23 08:14:52;;;;;;;;;;;;;;;;;;;;;
2024/04/23 08:18:41;;;;;;;4.40;3.10;;;;;;;14.67;40.78;100742.80;127477;1286;128652;-62
2024/04/23 08:22:01;;;;;;;5.30;3.30;;;;;;;14.95;39.00;100741.63;127879;1278;115466;-62
2024/04/23 08:25:46;;;;;;;5.10;3.30;;;;;;;14.72;38.19;100736.91;127968;1281;114889;-62
2024/04/23 08:29:51;;;;;;;;;;;;;;;;;;;;;
2024/04/23 08:33:14;;;;;;;4.80;2.80;;;;;;;15.17;38.85;100730.06;126258;1295;114867;-60
2024/04/23 08:36:56;;;;;;;;;;;;;;;;;;;;;
2024/04/23 08:40:41;;;;;;;9.80;5.20;;;;;;;15.26;37.21;100720.16;126233;1315;114881;-62
2024/04/23 08:44:41;;;;;;;6.70;3.40;;;;;;;15.12;36.87;100716.32;126108;1298;114950;-62
2024/04/23 08:48:42;;;;;;;4.60;3.50;;;;;;;15.22;37.88;100706.88;126528;1309;114980;-61
2024/04/23 08:52:30;;;;;;;5.40;3.10;;;;;;;15.27;37.45;100702.61;125869;1305;114847;-62
2024/04/23 08:56:12;;;;;;;;;;;;;;;;;;;;;
2024/04/23 08:59:55;;;;;;;;;;;;;;;;;;;;;
2024/04/23 09:03:44;;;;;;;6.50;3.20;;;;;;;15.18;36.61;100685.94;126306;1309;115252;-61
2024/04/23 09:07:41;;;;;;;;;;;;;;;;;;;;;
2024/04/23 09:12:02;;;;;;;5.00;3.40;;;;;;;14.01;35.83;100686.21;125810;1300;636168;-62
2024/04/23 09:15:52;;;;;;;4.70;3.20;;;;;;;13.67;35.21;100680.27;127617;1295;128558;-62
2024/04/23 09:19:53;;;;;;;;;;;;;;;;;;;;;
2024/04/23 09:23:40;;;;;;;5.10;3.40;;;;;;;13.27;35.81;100669.54;123236;1310;5439095;-61
2024/04/23 09:27:40;;;;;;;5.10;3.20;;;;;;;13.54;36.81;100672.52;125814;1309;115042;-62
2024/04/23 09:31:37;;;;;;;3.80;2.40;;;;;;;13.77;35.18;100671.98;125054;1322;114897;-62
2024/04/23 09:35:13;;;;;;;;;;;;;;;;;;;;;
2024/04/23 09:39:16;;;;;;;3.30;2.20;;;;;;;13.74;35.59;100666.55;124421;1313;114928;-60
2024/04/23 09:43:06;;;;;;;;;;;;;;;13.42;34.82;100664.41;124707;1329;114923;-61
2024/04/23 09:51:05;;;;;;;3.80;2.50;;;;;;;12.62;35.61;100653.45;125963;1297;635955;-63
2024/04/23 09:55:07;;;;;;;4.60;3.50;;;;;;;12.19;35.36;100650.63;127585;1298;128400;-63
2024/04/23 09:58:48;;;;;;;6.40;3.40;;;;;;;11.64;35.73;100646.30;126576;1289;114931;-62
2024/04/23 10:02:50;;;;;;;;;;;;;;;;;;;;;
2024/04/23 10:06:56;;;;;;;3.40;2.20;;;;;;;11.50;36.14;100634.30;122373;1291;115000;-62
2024/04/23 10:10:54;;;;;;;3.80;2.30;;;;;;;11.36;36.06;100627.04;126201;1292;114901;-62
2024/04/23 10:14:43;;;;;;;;;;;;;;;;;;;;;
2024/04/23 10:19:15;;;;;;;2.80;2.10;;;;;;;11.02;36.34;100617.55;125494;1296;129896;-61
2024/04/23 10:22:58;;;;;;;;;;;;;;;;;;;;;
2024/04/23 10:26:43;;;;;;;;;;;;;;;;;;;;;
2024/04/23 10:30:50;;;;;;;5.50;2.90;;;;;;;10.77;36.63;100597.45;125166;1310;114956;-62
2024/04/23 10:34:50;;;;;;;3.50;2.80;;;;;;;10.71;37.34;100592.54;125362;1313;115007;-63
2024/04/23 10:38:30;;;;;;;3.60;2.50;;;;;;;10.52;36.94;100584.80;125345;1304;128961;-61
2024/04/23 10:42:19;;;;;;;3.70;2.40;;;;;;;10.36;37.08;100580.83;124983;1311;115010;-63
2024/04/23 10:46:21;;;;;;;4.00;2.30;;;;;;;10.41;37.60;100577.61;125219;1323;114934;-63
2024/04/23 10:50:00;;;;;;;;;;;;;;;;;;;;;
2024/04/23 10:53:57;;;;;;;;;;;;;;;;;;;;;
2024/04/23 10:58:11;;;;;;;4.40;2.60;;;;;;;10.18;37.64;100558.04;126388;1305;635447;-63
2024/04/23 11:02:04;;;;;;;4.10;2.50;;;;;;;10.05;38.05;100555.95;128888;1270;128665;-62
2024/04/23 11:06:01;;;;;;;;;;;;;;;;;;;;;
2024/04/23 11:10:03;;;;;;;;;;;;;;;;;;;;;
2024/04/23 11:13:56;;;;;;;3.80;2.90;;;;;;;10.01;37.59;100542.90;124189;1292;115031;-61
2024/04/23 11:17:50;;;;;;;;;;;;;;;;;;;;;
2024/04/23 11:21:35;;;;;;;4.30;2.80;;;;;;;10.03;38.14;100530.86;126207;1305;116016;-61
2024/04/23 11:25:49;;;;;;;;;;;;;;;;;;;;;
2024/04/23 11:30:01;;;;;;;3.10;2.00;;;;;;;10.11;38.32;100528.35;125926;1294;114840;-61
2024/04/23 11:33:52;;;;;;;;;;;;;;;;;;;;;
2024/04/23 11:37:40;;;;;;;3.50;2.40;;;;;;;10.10;38.18;100510.60;124488;1331;114926;-61
2024/04/23 11:41:24;;;;;;;4.50;3.30;;;;;;;10.15;38.15;100505.90;124387;1331;114972;-62
2024/04/23 11:44:53;;;;;;;4.80;1.90;;;;;;;10.03;38.12;100496.80;123711;1319;129676;-63
2024/04/23 11:48:44;;;;;;;3.90;2.70;;;;;;;9.89;37.86;100484.73;124782;1307;115191;-61
2024/04/23 11:52:21;;;;;;;;;;;;;;;;;;;;;
2024/04/23 11:55:36;;;;;;;;;;;;;;;;;;;;;
2024/04/23 11:59:25;;;;;;;;;;;;;;;;;;;;;
2024/04/23 12:03:18;;;;;;;3.20;1.90;;;;;;;9.71;38.76;100470.52;124729;1310;129749;-61
2024/04/23 12:07:19;;;;;;;4.10;2.40;;;;;;;9.72;38.16;100463.52;124975;1310;115068;-61
2024/04/23 12:11:21;;;;;;;3.70;2.90;;;;;;;9.77;38.54;100452.22;125092;1321;114962;-61
2024/04/23 12:15:17;;;;;;;5.00;2.60;;;;;;;9.79;38.68;100445.19;125682;1313;114881;-61
2024/04/23 12:18:51;;;;;;;;;;;;;;;;;;;;;
2024/04/23 12:22:33;;;;;;;3.50;2.40;;;;;;;9.94;38.77;100430.65;125985;1293;129934;-61
2024/04/23 12:26:13;;;;;;;4.10;3.00;;;;;;;10.00;38.54;100427.69;126059;1296;114808;-62
2024/04/23 12:30:01;;;;;;;;;;;;;;;;;;;;;
2024/04/23 12:34:12;;;;;;;4.50;2.80;;;;;;;10.05;38.35;100421.20;126601;1298;114949;-61
2024/04/23 12:37:59;;;;;;;3.60;2.70;;;;;;;10.01;38.14;100412.48;126485;1309;114889;-62
2024/04/23 12:41:43;;;;;;;4.30;3.00;;;;;;;9.96;38.05;100410.40;125904;1294;129840;-62
2024/04/23 12:45:44;;;;;;;3.60;2.80;;;;;;;9.88;38.09;100403.79;124899;1310;114861;-62
2024/04/23 12:49:23;;;;;;;5.10;2.70;;;;;;;9.79;37.77;100393.46;125119;1322;114933;-62
2024/04/23 12:53:11;;;;;;;4.90;3.90;;;;;;;9.71;38.44;100375.29;124686;1327;114927;-62
2024/04/23 12:56:16;;;;;;;4.80;2.40;;;;;;;9.76;38.94;100364.90;123902;1329;114989;-62
2024/04/23 12:59:25;;;;;;;2.60;2.00;;;;;;;9.80;38.67;100359.91;124345;1316;129720;-61
2024/04/23 13:07:20;;;;;;;;;;;;;;;;;;;;;
2024/04/23 13:10:55;;;;;;;4.20;3.00;;;;;;;9.68;38.07;100350.44;128810;1278;127835;-64
2024/04/23 13:14:21;;;;;;;4.30;2.90;;;;;;;9.63;38.49;100345.70;128781;1267;114919;-62
2024/04/23 13:18:16;;;;;;;5.20;2.90;;;;;;;9.65;38.63;100344.49;128941;1287;114760;-62
2024/04/23 13:21:48;;;;;;;4.60;2.70;;;;;;;9.80;38.67;100339.39;125535;1261;5409122;-63
2024/04/23 13:25:30;;;;;;;3.90;3.10;;;;;;;10.06;38.98;100329.98;129526;1271;115208;-62
2024/04/23 13:29:07;;;;;;;3.70;3.10;;;;;;;10.40;38.78;100324.46;129507;1280;114707;-63
2024/04/23 13:32:40;;;;;;;;;;;;;;;;;;;;;
2024/04/23 13:36:43;;;;;;;4.30;2.70;;;;;;;10.93;38.45;100316.49;129662;1263;114814;-62
2024/04/23 13:40:23;;;;;;;;;;;;;;;;;;;;;
2024/04/23 13:44:18;;;;;;;3.50;2.80;;;;;;;11.37;38.07;100299.95;128490;1276;115170;-61
2024/04/23 13:47:56;;;;;;;4.60;3.40;;;;;;;11.46;37.78;100294.12;128315;1293;116170;-61
2024/04/23 13:51:19;;;;;;;4.00;3.10;;;;;;;11.43;37.94;100294.13;128333;1293;128601;-61
2024/04/23 13:59:20;;;;;;;4.50;2.90;;;;;;;11.23;37.44;100281.38;127714;1299;114865;-62
2024/04/23 14:02:56;;;;;;;4.00;2.50;;;;;;;11.13;37.50;100277.77;127617;1295;114863;-61
2024/04/23 14:06:55;;;;;;;;;;;;;;;;;;;;;
2024/04/23 14:10:34;;;;;;;4.00;3.30;;;;;;;10.90;37.17;100272.34;127295;1299;129702;-60
2024/04/23 14:14:23;;;;;;;4.80;3.00;;;;;;;10.81;37.32;100269.05;127640;1299;114990;-61
2024/04/23 14:18:27;;;;;;;3.50;2.80;;;;;;;10.86;36.98;100270.45;128245;1276;114870;-61
2024/04/23 14:22:19;;;;;;;3.40;2.20;;;;;;;11.05;37.36;100261.03;127952;1294;115027;-61
2024/04/23 14:25:49;;;;;;;4.10;2.30;;;;;;;11.23;37.33;100261.86;128467;1276;114964;-63
2024/04/23 14:29:05;;;;;;;;;;;;;;;;;;;;;
2024/04/23 14:32:14;;;;;;;4.20;2.50;;;;;;;11.53;37.19;100248.86;127689;1301;114866;-61
2024/04/23 14:35:19;;;;;;;4.30;3.10;;;;;;;11.61;36.73;100243.58;127901;1296;114814;-61
2024/04/23 14:38:33;;;;;;;12.20;5.50;;;;;;;11.64;36.73;100235.36;128218;1297;114949;-61
2024/04/23 14:42:20;;;;;;;5.00;3.30;;;;;;;11.61;36.35;100233.18;128045;1296;114940;-61
2024/04/23 14:46:07;;;;;;;;;;;;;;;;;;;;;
2024/04/23 14:50:06;;;;;;;;;;;;;;;;;;;;;
2024/04/23 14:53:50;;;;;;;5.00;2.40;;;;;;;11.59;36.54;100217.20;127529;1300;114946;-62
2024/04/23 14:57:37;;;;;;;;;;;;;;;;;;;;;
2024/04/23 15:01:19;;;;;;;4.50;2.60;;;;;;;11.53;36.42;100210.05;128143;1293;114762;-62
2024/04/23 15:05:05;;;;;;;3.40;2.50;;;;;;;11.50;36.39;100208.39;128560;1272;129019;-61
2024/04/23 15:08:11;;;;;;;4.70;2.60;;;;;;;11.48;36.25;100202.27;128255;1293;115464;-62
2024/04/23 15:11:24;;;;;;;4.40;2.50;;;;;;;11.46;36.28;100196.45;128705;1272;114906;-61
2024/04/23 15:14:32;;;;;;;3.70;2.70;;;;;;;11.47;36.55;100196.61;128760;1270;114849;-61
2024/04/23 15:17:36;;;;;;;4.50;3.50;;;;;;;11.48;36.09;100197.98;128478;1276;114868;-61
2024/04/23 15:20:40;;;;;;;5.80;3.60;;;;;;;11.44;36.53;100202.50;128629;1287;127902;-60
2024/04/23 15:23:42;;;;;;;6.10;4.20;;;;;;;11.42;36.76;100199.18;128416;1293;114925;-63
2024/04/23 15:26:45;;;;;;;11.50;5.80;;;;;;;11.42;36.49;100194.90;128662;1292;114845;-61
2024/04/23 15:29:48;;;;;;;11.00;8.40;;;;;;;11.38;36.54;100196.17;128881;1273;114898;-61
2024/04/23 15:36:19;;;;;;;5.80;2.60;;;;;;;11.24;36.30;100194.82;128588;1273;127452;-61
2024/04/23 15:39:21;;;;;;;5.60;4.00;;;;;;;11.15;36.22;100194.55;128676;1273;114725;-61
2024/04/23 15:42:27;;;;;;;8.70;7.70;;;;;;;11.14;36.50;100189.09;128739;1275;114881;-61
2024/04/23 15:45:37;;;;;;;6.40;3.80;;;;;;;11.12;36.55;100182.58;129354;1264;115237;-61
2024/04/23 15:48:58;;;;;;;6.80;4.60;;;;;;;11.08;36.76;100174.21;129535;1282;114865;-62
2024/04/23 15:52:01;;;;;;;4.90;2.60;;;;;;;11.04;36.57;100167.77;129473;1282;128632;-60
2024/04/23 15:55:06;;;;;;;3.40;2.60;;;;;;;11.00;36.58;100166.81;129551;1282;114787;-60
2024/04/23 15:58:41;;;;;;;4.00;2.90;;;;;;;10.99;36.84;100166.09;129761;1257;114714;-61
2024/04/23 16:01:47;;;;;;;5.00;3.20;;;;;;;10.94;36.39;100163.14;129585;1280;114727;-61
2024/04/23 16:04:51;;;;;;;5.20;3.50;;;;;;;10.86;36.39;100162.15;129575;1280;114708;-61
2024/04/23 16:07:59;;;;;;;7.30;4.30;;;;;;;10.82;36.73;100158.44;129392;1258;128456;-60
2024/04/23 16:11:09;;;;;;;4.40;3.20;;;;;;;10.82;36.65;100159.14;129802;1273;114863;-61
2024/04/23 16:14:14;;;;;;;5.80;3.80;;;;;;;10.78;36.34;100158.25;129673;1261;114732;-61
2024/04/23 16:17:22;;;;;;;5.10;3.10;;;;;;;10.73;36.80;100153.35;129409;1267;114844;-62
2024/04/23 16:20:37;;;;;;;5.20;3.40;;;;;;;10.73;36.92;100148.55;129672;1257;114749;-62
2024/04/23 16:23:48;;;;;;;6.10;4.90;;;;;;;10.70;37.14;100143.32;129524;1280;128991;-61
2024/04/23 16:27:00;;;;;;;8.00;5.50;;;;;;;10.63;37.31;100142.96;129642;1280;114807;-60
2024/04/23 16:30:08;;;;;;;;;;;;;;;10.61;37.52;100143.23;129586;1261;114798;-61
2024/04/23 16:33:15;;;;;;;5.90;4.40;;;;;;;10.58;37.42;100144.33;129626;1261;115155;-61
2024/04/23 16:36:35;;;;;;;6.70;4.50;;;;;;;10.49;37.60;100141.91;129508;1274;115088;-60
2024/04/23 16:39:41;;;;;;;6.00;3.70;;;;;;;10.42;37.52;100141.21;129548;1259;129936;-60
2024/04/23 16:43:07;;;;;;;8.30;7.30;;;;;;;10.36;37.52;100139.67;129618;1261;114743;-62
2024/04/23 16:46:38;;;;;;;8.10;5.30;;;;;;;10.33;37.50;100137.55;129517;1262;114803;-62
2024/04/23 16:49:50;;;;;;;6.70;3.90;;;;;;;10.34;37.93;100130.49;129480;1264;114744;-61
2024/04/23 16:53:00;;;;;;;;;;;;;;;10.34;38.01;100126.02;129598;1280;114785;-61
2024/04/23 16:56:33;;;;;;;8.00;5.20;;;;;;;10.28;37.73;100125.64;129480;1280;128649;-61
2024/04/23 17:00:04;;;;;;;11.60;7.30;;;;;;;10.22;37.82;100125.58;129555;1280;114764;-61
2024/04/23 17:03:14;;;;;;;7.10;5.20;;;;;;;10.18;37.78;100125.58;129606;1261;114801;-60
2024/04/23 17:06:25;;;;;;;6.20;3.80;;;;;;;10.15;37.97;100124.31;129581;1263;115001;-61
2024/04/23 17:09:31;;;;;;;6.00;4.10;;;;;;;10.11;37.86;100123.28;129601;1280;114731;-62
2024/04/23 17:12:40;;;;;;;5.70;4.00;;;;;;;10.05;38.14;100122.33;129599;1272;128435;-60
2024/04/23 17:15:48;;;;;;;7.10;3.80;;;;;;;10.01;37.87;100120.35;129605;1280;114959;-60
2024/04/23 17:18:56;;;;;;;5.90;3.50;;;;;;;9.97;38.23;100117.55;129586;1262;115461;-60
2024/04/23 17:21:58;;;;;;;4.70;2.90;;;;;;;9.96;38.14;100117.60;129630;1261;114791;-61
2024/04/23 17:25:06;;;;;;;7.10;4.40;;;;;;;9.92;38.20;100110.51;129626;1280;115258;-60
2024/04/23 17:28:13;;;;;;;8.40;6.30;;;;;;;9.89;38.26;100113.50;129691;1280;128087;-60
2024/04/23 17:31:39;;;;;;;8.10;4.90;;;;;;;9.84;38.55;100112.81;129683;1280;114754;-61
2024/04/23 17:35:02;;;;;;;15.10;9.70;;;;;;;9.81;38.75;100107.86;129551;1266;114862;-61
2024/04/23 17:38:10;;;;;;;13.10;7.80;;;;;;;9.73;38.80;100103.92;129702;1262;114725;-63
2024/04/23 17:41:12;;;;;;;19.10;11.30;;;;;;;9.62;39.01;100099.11;129783;1258;115108;-61
2024/04/23 17:44:15;;;;;;;21.50;13.20;;;;;;;9.54;39.04;100093.61;129700;1280;115095;-61
2024/04/23 17:47:22;;;;;;;22.80;11.60;;;;;;;9.46;39.18;100090.42;129852;1280;114840;-61
2024/04/23 17:50:24;;;;;;;22.90;11.60;;;;;;;9.38;39.52;100086.73;129655;1257;114691;-61
2024/04/23 17:53:39;;;;;;;15.90;8.60;;;;;;;9.32;39.61;100090.23;129612;1264;115118;-62
2024/04/23 17:56:41;;;;;;;16.20;7.60;;;;;;;9.27;39.73;100081.90;129734;1261;114778;-61
2024/04/23 17:59:44;;;;;;;10.00;6.50;;;;;;;9.22;39.90;100080.91;129717;1280;114743;-61
2024/04/23 18:02:58;;;;;;;8.80;5.80;;;;;;;9.16;40.12;100080.46;129660;1280;114737;-60
2024/04/23 18:06:14;;;;;;;10.00;6.20;;;;;;;9.08;40.22;100076.36;129631;1267;114791;-60
2024/04/23 18:09:16;;;;;;;6.30;4.60;;;;;;;9.01;40.51;100078.15;129689;1264;114814;-62
2024/04/23 18:12:27;;;;;;;7.00;4.70;;;;;;;8.92;40.82;100073.73;129684;1280;114787;-61
2024/04/23 18:15:47;;;;;;;6.30;4.00;;;;;;;8.83;40.95;100077.70;129701;1261;128863;-62
2024/04/23 18:18:53;;;;;;;7.10;4.00;;;;;;;8.73;41.41;100071.55;129597;1263;114792;-61
2024/04/23 18:22:22;;;;;;;7.90;3.80;;;;;;;8.63;41.86;100071.67;129705;1262;114747;-61
2024/04/23 18:25:25;;;;;;;7.20;5.10;;;;;;;8.52;41.99;100070.73;128972;1278;114953;-63
2024/04/23 18:28:50;;;;;;;8.70;5.00;;;;;;;8.42;42.41;100072.02;128834;1281;114888;-60
2024/04/23 18:32:04;;;;;;;12.10;7.80;;;;;;;8.32;42.67;100070.30;128991;1267;128893;-59
2024/04/23 18:35:16;;;;;;;11.20;5.90;;;;;;;8.24;42.75;100070.87;128918;1272;114759;-61
2024/04/23 18:38:28;;;;;;;;;;;;;;;8.16;43.36;100071.56;129131;1267;115137;-61
2024/04/23 18:41:39;;;;;;;9.10;6.10;;;;;;;8.07;43.49;100075.13;129150;1266;114860;-61
2024/04/23 18:44:44;;;;;;;12.60;7.30;;;;;;;7.99;43.47;100073.71;129137;1267;114853;-60
2024/04/23 18:47:48;;;;;;;12.40;7.20;;;;;;;7.91;44.03;100076.73;129167;1264;128608;-61
2024/04/23 18:50:53;;;;;;;13.10;7.50;;;;;;;7.85;44.12;100073.38;129120;1286;114853;-61
2024/04/23 18:53:58;;;;;;;15.50;9.30;;;;;;;7.81;44.33;100073.23;129117;1271;114841;-61
2024/04/23 18:57:00;;;;;;;15.90;9.80;;;;;;;7.76;44.67;100071.13;129209;1267;114922;-62
2024/04/23 19:00:22;;;;;;;13.20;8.80;;;;;;;7.71;44.76;100074.16;129097;1286;114847;-62
2024/04/23 19:03:30;;;;;;;17.70;10.30;;;;;;;7.65;45.15;100066.39;129777;1277;129280;-62
2024/04/23 19:06:49;;;;;;;16.70;9.50;;;;;;;7.61;45.12;100064.80;129929;1258;115232;-61
2024/04/23 19:10:53;;;;;;;12.90;8.00;;;;;;;7.56;45.38;100060.36;129949;1258;115098;-61
2024/04/23 19:14:49;;;;;;;;;;;;;;;;;;;;;
2024/04/23 19:18:36;;;;;;;13.90;7.60;;;;;;;7.48;45.78;100055.55;128632;1292;114866;-62